COOK1: Arkansas River Nr Coolidge, KS

                                SHEF ID:       COOK1     ARKANSAS R NR COOLIDGE, KS
STATION TYPE:
Regulating: Stage = 8.00, Flow = 2041

PRECIP STAGE STAGE(2) RIV-FLOW WTR-TEMP CONDUCT BAT-LOAD
in ft ft cfs F umho/cm volt
Ccp-Rev Ccp-Rev Ccp-Rev Ccp-Rev Ccp-Rev Ccp-Rev Ccp-Rev
(America/Chicago)
05/02 00:00 0.00 1.89 ---- 21 57.87 7088 12.48
05/02 01:00 0.00 1.89 ---- 21 56.89 7106 12.45
05/02 02:00 0.00 1.88 ---- 20 55.74 7142 12.40
05/02 03:00 0.00 1.89 ---- 21 54.54 7182 12.37
05/02 04:00 0.00 1.88 ---- 20 53.37 7236 12.33
05/02 05:00 0.00 1.88 ---- 20 52.25 7263 12.28
05/02 06:00 0.00 1.88 ---- 20 51.12 7270 12.24
05/02 07:00 0.00 1.87 ---- 20 50.22 7270 12.19
05/02 08:00 0.00 1.86 ---- 19 49.95 7281 12.21
05/02 09:00 0.00 1.86 ---- 19 51.51 7306 12.93
05/02 10:00 0.00 1.86 ---- 19 54.73 7324 13.48
05/02 11:00 0.00 1.86 ---- 19 59.14 7346 13.79
05/02 12:00 0.00 1.85 ---- 19 63.97 7371 14.24
05/02 13:00 0.00 1.85 ---- 19 68.81 7400 14.34
05/02 14:00 0.00 1.85 ---- 19 73.04 7432 14.31
05/02 15:00 0.00 1.85 ---- 19 75.90 7466 14.18
05/02 16:00 0.00 1.85 ---- 19 77.45 7492 14.05
05/02 17:00 0.00 1.85 ---- 19 77.70 7490 13.92
05/02 18:00 0.00 1.85 ---- 19 76.39 7470 13.78
05/02 19:00 0.00 1.85 ---- 19 73.98 7438 13.58
05/02 20:00 0.00 1.84 ---- 18 70.74 7407 13.11
05/02 21:00 0.00 1.83 ---- 18 67.35 7378 12.65
05/02 22:00 0.00 1.83 ---- 18 64.15 7348 12.63
05/02 23:00 0.00 1.89 ---- 21 61.81 7281 12.55
Data processed at Sun 03May2026 04:30 GMT

NOTICE: If you are parsing this page

Please convert to using our Data API. Starting early 2026 we will be migrating to: https://water.usace.army.mil with modern pages rendered in JavaScript. When this migration completes you will no longer be able to scrape this page! CWMSDataAPI (CDA)

Timeseries IDs (TSIDs)

TSIDs used from left to right in the data table
COOL.Precip-Inc.Total.1Hour.1Hour.Ccp-Rev
COOL.Stage.Inst.1Hour.0.Ccp-Rev
COOL.Stage-Alt.Inst.1Hour.0.Ccp-Rev
COOL.Flow.Inst.1Hour.0.Ccp-Rev
COOL.Temp-Water.Inst.1Hour.0.Ccp-Rev
COOL.Cond.Inst.1Hour.0.Ccp-Rev
COOL.Volt-Battery Load.Inst.1Hour.0.Ccp-Rev

                            

All information presented herein is the property of the government of the United States of America and may be revised or deleted at any time without prior notice. Dissemination of this information without the expressed written consent of the Public Affairs Office, Tulsa District U.S. Army Corps of Engineers is strictly prohibited. These data are gathered electronically and, as presented, have NOT undergone any form of quality control. These data are NOT guaranteed to be valid or correct.